sensor_id;sensor_type;location;lat;lon;timestamp;P1;durP1;ratioP1;P2;durP2;ratioP2
52274;SDS011;38228;50.940;4.024;2023-05-07T00:01:42;14.68;;;4.88;;
52274;SDS011;38228;50.940;4.024;2023-05-07T00:04:08;13.55;;;4.47;;
52274;SDS011;38228;50.940;4.024;2023-05-07T00:06:34;12.38;;;4.38;;
52274;SDS011;38228;50.940;4.024;2023-05-07T00:09:00;16.38;;;4.85;;
52274;SDS011;38228;50.940;4.024;2023-05-07T00:11:26;10.63;;;4.40;;
52274;SDS011;38228;50.940;4.024;2023-05-07T00:13:53;13.45;;;4.88;;
52274;SDS011;38228;50.940;4.024;2023-05-07T00:16:19;17.10;;;4.70;;
52274;SDS011;38228;50.940;4.024;2023-05-07T00:18:44;16.35;;;4.80;;
52274;SDS011;38228;50.940;4.024;2023-05-07T00:21:10;12.18;;;4.60;;
52274;SDS011;38228;50.940;4.024;2023-05-07T00:23:36;17.05;;;5.30;;
52274;SDS011;38228;50.940;4.024;2023-05-07T00:26:02;14.32;;;4.57;;
52274;SDS011;38228;50.940;4.024;2023-05-07T00:28:29;13.55;;;5.15;;
52274;SDS011;38228;50.940;4.024;2023-05-07T00:30:54;17.63;;;4.88;;
52274;SDS011;38228;50.940;4.024;2023-05-07T00:33:21;17.02;;;5.45;;
52274;SDS011;38228;50.940;4.024;2023-05-07T00:35:47;15.63;;;4.70;;
52274;SDS011;38228;50.940;4.024;2023-05-07T00:38:13;16.00;;;4.93;;
52274;SDS011;38228;50.940;4.024;2023-05-07T00:40:39;14.77;;;5.40;;
52274;SDS011;38228;50.940;4.024;2023-05-07T00:43:04;14.18;;;4.72;;
52274;SDS011;38228;50.940;4.024;2023-05-07T00:45:32;11.65;;;5.00;;
52274;SDS011;38228;50.940;4.024;2023-05-07T00:48:01;14.10;;;5.05;;
52274;SDS011;38228;50.940;4.024;2023-05-07T00:50:28;12.02;;;4.75;;
52274;SDS011;38228;50.940;4.024;2023-05-07T00:52:54;11.48;;;4.80;;
52274;SDS011;38228;50.940;4.024;2023-05-07T00:55:21;13.20;;;4.80;;
52274;SDS011;38228;50.940;4.024;2023-05-07T00:57:47;14.57;;;5.13;;
52274;SDS011;38228;50.940;4.024;2023-05-07T01:00:13;19.67;;;5.43;;
52274;SDS011;38228;50.940;4.024;2023-05-07T01:02:39;16.13;;;5.53;;
52274;SDS011;38228;50.940;4.024;2023-05-07T01:05:05;14.93;;;5.15;;
52274;SDS011;38228;50.940;4.024;2023-05-07T01:07:34;16.88;;;5.53;;
52274;SDS011;38228;50.940;4.024;2023-05-07T01:10:00;14.05;;;5.50;;
52274;SDS011;38228;50.940;4.024;2023-05-07T01:12:28;17.13;;;5.78;;
52274;SDS011;38228;50.940;4.024;2023-05-07T01:14:55;17.63;;;5.95;;
52274;SDS011;38228;50.940;4.024;2023-05-07T01:17:21;17.42;;;5.55;;
52274;SDS011;38228;50.940;4.024;2023-05-07T01:19:47;14.98;;;5.07;;
52274;SDS011;38228;50.940;4.024;2023-05-07T01:22:13;12.45;;;5.22;;
52274;SDS011;38228;50.940;4.024;2023-05-07T01:24:41;15.85;;;4.68;;
52274;SDS011;38228;50.940;4.024;2023-05-07T01:27:08;13.45;;;5.10;;
52274;SDS011;38228;50.940;4.024;2023-05-07T01:29:33;13.60;;;4.90;;
52274;SDS011;38228;50.940;4.024;2023-05-07T01:32:00;13.88;;;5.50;;
52274;SDS011;38228;50.940;4.024;2023-05-07T01:34:28;10.82;;;5.10;;
52274;SDS011;38228;50.940;4.024;2023-05-07T01:36:56;13.75;;;5.43;;
52274;SDS011;38228;50.940;4.024;2023-05-07T01:39:24;15.13;;;5.07;;
52274;SDS011;38228;50.940;4.024;2023-05-07T01:41:52;14.90;;;5.22;;
52274;SDS011;38228;50.940;4.024;2023-05-07T01:44:21;14.85;;;5.72;;
52274;SDS011;38228;50.940;4.024;2023-05-07T01:46:48;14.60;;;5.38;;
52274;SDS011;38228;50.940;4.024;2023-05-07T01:49:15;15.90;;;5.40;;
52274;SDS011;38228;50.940;4.024;2023-05-07T01:51:41;16.38;;;5.80;;
52274;SDS011;38228;50.940;4.024;2023-05-07T01:54:08;13.95;;;5.88;;
52274;SDS011;38228;50.940;4.024;2023-05-07T01:56:34;16.88;;;6.03;;
52274;SDS011;38228;50.940;4.024;2023-05-07T01:59:00;14.25;;;6.10;;
52274;SDS011;38228;50.940;4.024;2023-05-07T02:01:27;19.15;;;6.63;;
52274;SDS011;38228;50.940;4.024;2023-05-07T02:03:52;13.07;;;6.10;;
52274;SDS011;38228;50.940;4.024;2023-05-07T02:06:19;18.80;;;6.43;;
52274;SDS011;38228;50.940;4.024;2023-05-07T02:08:45;14.98;;;6.15;;
52274;SDS011;38228;50.940;4.024;2023-05-07T02:11:11;18.95;;;6.10;;
52274;SDS011;38228;50.940;4.024;2023-05-07T02:13:37;13.63;;;6.15;;
52274;SDS011;38228;50.940;4.024;2023-05-07T02:16:03;14.98;;;5.82;;
52274;SDS011;38228;50.940;4.024;2023-05-07T02:18:29;13.32;;;5.57;;
52274;SDS011;38228;50.940;4.024;2023-05-07T02:20:55;16.70;;;6.20;;
52274;SDS011;38228;50.940;4.024;2023-05-07T02:23:21;13.05;;;5.93;;
52274;SDS011;38228;50.940;4.024;2023-05-07T02:25:48;18.35;;;6.22;;
52274;SDS011;38228;50.940;4.024;2023-05-07T02:28:14;12.70;;;5.55;;
52274;SDS011;38228;50.940;4.024;2023-05-07T02:30:40;17.20;;;5.80;;
52274;SDS011;38228;50.940;4.024;2023-05-07T02:33:06;17.30;;;5.47;;
52274;SDS011;38228;50.940;4.024;2023-05-07T02:35:33;18.52;;;6.00;;
52274;SDS011;38228;50.940;4.024;2023-05-07T02:37:58;17.90;;;6.05;;
52274;SDS011;38228;50.940;4.024;2023-05-07T02:40:24;10.52;;;5.55;;
52274;SDS011;38228;50.940;4.024;2023-05-07T02:42:50;14.45;;;5.60;;
52274;SDS011;38228;50.940;4.024;2023-05-07T02:45:16;18.17;;;5.78;;
52274;SDS011;38228;50.940;4.024;2023-05-07T02:47:41;18.63;;;5.88;;
52274;SDS011;38228;50.940;4.024;2023-05-07T02:50:07;14.02;;;5.65;;
52274;SDS011;38228;50.940;4.024;2023-05-07T02:52:33;13.60;;;5.75;;
52274;SDS011;38228;50.940;4.024;2023-05-07T02:54:58;16.48;;;6.13;;
52274;SDS011;38228;50.940;4.024;2023-05-07T02:57:24;12.10;;;5.60;;
52274;SDS011;38228;50.940;4.024;2023-05-07T02:59:50;13.93;;;5.20;;
52274;SDS011;38228;50.940;4.024;2023-05-07T03:02:16;17.10;;;6.40;;
52274;SDS011;38228;50.940;4.024;2023-05-07T03:04:42;16.33;;;6.10;;
52274;SDS011;38228;50.940;4.024;2023-05-07T03:07:07;17.52;;;5.80;;
52274;SDS011;38228;50.940;4.024;2023-05-07T03:09:33;18.40;;;5.80;;
52274;SDS011;38228;50.940;4.024;2023-05-07T03:11:59;11.70;;;5.22;;
52274;SDS011;38228;50.940;4.024;2023-05-07T03:14:24;17.95;;;5.88;;
52274;SDS011;38228;50.940;4.024;2023-05-07T03:16:50;13.10;;;6.20;;
52274;SDS011;38228;50.940;4.024;2023-05-07T03:19:16;11.63;;;5.85;;
52274;SDS011;38228;50.940;4.024;2023-05-07T03:21:41;13.20;;;6.05;;
52274;SDS011;38228;50.940;4.024;2023-05-07T03:24:07;17.13;;;6.03;;
52274;SDS011;38228;50.940;4.024;2023-05-07T03:26:33;14.02;;;5.82;;
52274;SDS011;38228;50.940;4.024;2023-05-07T03:28:58;13.32;;;5.50;;
52274;SDS011;38228;50.940;4.024;2023-05-07T03:31:25;14.13;;;5.95;;
52274;SDS011;38228;50.940;4.024;2023-05-07T03:33:54;12.27;;;5.88;;
52274;SDS011;38228;50.940;4.024;2023-05-07T03:36:21;15.13;;;6.00;;
52274;SDS011;38228;50.940;4.024;2023-05-07T03:38:48;13.10;;;5.93;;
52274;SDS011;38228;50.940;4.024;2023-05-07T03:41:14;15.45;;;5.85;;
52274;SDS011;38228;50.940;4.024;2023-05-07T03:43:40;15.98;;;5.53;;
52274;SDS011;38228;50.940;4.024;2023-05-07T03:46:06;12.80;;;5.53;;
52274;SDS011;38228;50.940;4.024;2023-05-07T03:48:32;18.55;;;5.97;;
52274;SDS011;38228;50.940;4.024;2023-05-07T03:50:58;12.45;;;5.50;;
52274;SDS011;38228;50.940;4.024;2023-05-07T03:53:24;13.15;;;5.60;;
52274;SDS011;38228;50.940;4.024;2023-05-07T03:55:49;17.02;;;5.78;;
52274;SDS011;38228;50.940;4.024;2023-05-07T03:58:15;10.43;;;5.10;;
52274;SDS011;38228;50.940;4.024;2023-05-07T04:00:41;13.48;;;5.50;;
52274;SDS011;38228;50.940;4.024;2023-05-07T04:03:07;17.17;;;6.30;;
52274;SDS011;38228;50.940;4.024;2023-05-07T04:05:33;16.10;;;6.47;;
52274;SDS011;38228;50.940;4.024;2023-05-07T04:07:59;12.90;;;6.57;;
52274;SDS011;38228;50.940;4.024;2023-05-07T04:10:25;14.07;;;5.88;;
52274;SDS011;38228;50.940;4.024;2023-05-07T04:12:53;12.43;;;6.20;;
52274;SDS011;38228;50.940;4.024;2023-05-07T04:15:18;16.38;;;5.85;;
52274;SDS011;38228;50.940;4.024;2023-05-07T04:17:44;24.10;;;6.55;;
52274;SDS011;38228;50.940;4.024;2023-05-07T04:20:13;14.82;;;6.55;;
52274;SDS011;38228;50.940;4.024;2023-05-07T04:22:40;17.23;;;5.63;;
52274;SDS011;38228;50.940;4.024;2023-05-07T04:25:07;13.30;;;5.70;;
52274;SDS011;38228;50.940;4.024;2023-05-07T04:27:34;15.05;;;6.03;;
52274;SDS011;38228;50.940;4.024;2023-05-07T04:30:00;12.75;;;5.88;;
52274;SDS011;38228;50.940;4.024;2023-05-07T04:32:27;14.52;;;6.82;;
52274;SDS011;38228;50.940;4.024;2023-05-07T04:34:55;14.60;;;5.82;;
52274;SDS011;38228;50.940;4.024;2023-05-07T04:37:21;12.25;;;5.78;;
52274;SDS011;38228;50.940;4.024;2023-05-07T04:39:47;14.60;;;6.45;;
52274;SDS011;38228;50.940;4.024;2023-05-07T04:42:17;14.52;;;6.47;;
52274;SDS011;38228;50.940;4.024;2023-05-07T04:44:43;12.40;;;5.60;;
52274;SDS011;38228;50.940;4.024;2023-05-07T04:47:10;14.27;;;5.63;;
52274;SDS011;38228;50.940;4.024;2023-05-07T04:49:37;12.55;;;5.75;;
52274;SDS011;38228;50.940;4.024;2023-05-07T04:52:03;15.40;;;5.80;;
52274;SDS011;38228;50.940;4.024;2023-05-07T04:54:29;11.43;;;5.35;;
52274;SDS011;38228;50.940;4.024;2023-05-07T04:56:55;12.93;;;5.57;;
52274;SDS011;38228;50.940;4.024;2023-05-07T04:59:21;14.07;;;5.72;;
52274;SDS011;38228;50.940;4.024;2023-05-07T05:01:47;11.35;;;5.70;;
52274;SDS011;38228;50.940;4.024;2023-05-07T05:04:12;13.05;;;5.78;;
52274;SDS011;38228;50.940;4.024;2023-05-07T05:06:38;14.73;;;5.60;;
52274;SDS011;38228;50.940;4.024;2023-05-07T05:09:04;14.63;;;5.90;;
52274;SDS011;38228;50.940;4.024;2023-05-07T05:11:30;13.10;;;5.97;;
52274;SDS011;38228;50.940;4.024;2023-05-07T05:13:56;11.88;;;5.88;;
52274;SDS011;38228;50.940;4.024;2023-05-07T05:16:24;12.10;;;5.78;;
52274;SDS011;38228;50.940;4.024;2023-05-07T05:18:50;13.73;;;5.82;;
52274;SDS011;38228;50.940;4.024;2023-05-07T05:21:17;14.35;;;6.63;;
52274;SDS011;38228;50.940;4.024;2023-05-07T05:23:42;19.55;;;6.75;;
52274;SDS011;38228;50.940;4.024;2023-05-07T05:26:08;15.18;;;7.50;;
52274;SDS011;38228;50.940;4.024;2023-05-07T05:28:34;14.85;;;6.72;;
52274;SDS011;38228;50.940;4.024;2023-05-07T05:30:59;18.92;;;7.82;;
52274;SDS011;38228;50.940;4.024;2023-05-07T05:33:25;12.82;;;6.55;;
52274;SDS011;38228;50.940;4.024;2023-05-07T05:35:51;12.88;;;6.90;;
52274;SDS011;38228;50.940;4.024;2023-05-07T05:38:17;15.95;;;7.28;;
52274;SDS011;38228;50.940;4.024;2023-05-07T05:40:42;14.65;;;7.43;;
52274;SDS011;38228;50.940;4.024;2023-05-07T05:43:08;14.18;;;6.18;;
52274;SDS011;38228;50.940;4.024;2023-05-07T05:45:34;15.60;;;6.60;;
52274;SDS011;38228;50.940;4.024;2023-05-07T05:48:00;16.70;;;6.60;;
52274;SDS011;38228;50.940;4.024;2023-05-07T05:50:25;15.25;;;6.75;;
52274;SDS011;38228;50.940;4.024;2023-05-07T05:52:51;18.10;;;6.55;;
52274;SDS011;38228;50.940;4.024;2023-05-07T05:55:17;11.98;;;5.97;;
52274;SDS011;38228;50.940;4.024;2023-05-07T05:57:42;20.77;;;7.80;;
52274;SDS011;38228;50.940;4.024;2023-05-07T06:00:08;15.52;;;5.95;;
52274;SDS011;38228;50.940;4.024;2023-05-07T06:02:35;15.65;;;5.95;;
52274;SDS011;38228;50.940;4.024;2023-05-07T06:05:00;14.20;;;6.13;;
52274;SDS011;38228;50.940;4.024;2023-05-07T06:07:26;11.60;;;5.85;;
52274;SDS011;38228;50.940;4.024;2023-05-07T06:09:52;13.20;;;5.63;;
52274;SDS011;38228;50.940;4.024;2023-05-07T06:12:17;9.20;;;5.53;;
52274;SDS011;38228;50.940;4.024;2023-05-07T06:14:43;21.15;;;6.78;;
52274;SDS011;38228;50.940;4.024;2023-05-07T06:17:09;13.05;;;5.68;;
52274;SDS011;38228;50.940;4.024;2023-05-07T06:19:35;12.63;;;6.00;;
52274;SDS011;38228;50.940;4.024;2023-05-07T06:22:00;11.60;;;5.88;;
52274;SDS011;38228;50.940;4.024;2023-05-07T06:24:27;15.98;;;5.80;;
52274;SDS011;38228;50.940;4.024;2023-05-07T06:26:53;16.58;;;6.20;;
52274;SDS011;38228;50.940;4.024;2023-05-07T06:29:19;13.18;;;6.20;;
52274;SDS011;38228;50.940;4.024;2023-05-07T06:31:44;16.10;;;5.82;;
52274;SDS011;38228;50.940;4.024;2023-05-07T06:34:10;11.95;;;5.75;;
52274;SDS011;38228;50.940;4.024;2023-05-07T06:36:39;15.57;;;5.90;;
52274;SDS011;38228;50.940;4.024;2023-05-07T06:39:05;12.98;;;5.80;;
52274;SDS011;38228;50.940;4.024;2023-05-07T06:41:31;14.13;;;5.63;;
52274;SDS011;38228;50.940;4.024;2023-05-07T06:43:57;14.80;;;6.20;;
52274;SDS011;38228;50.940;4.024;2023-05-07T06:46:22;10.20;;;5.10;;
52274;SDS011;38228;50.940;4.024;2023-05-07T06:48:48;12.80;;;5.30;;
52274;SDS011;38228;50.940;4.024;2023-05-07T06:51:14;13.07;;;5.50;;
52274;SDS011;38228;50.940;4.024;2023-05-07T06:53:39;14.27;;;5.05;;
52274;SDS011;38228;50.940;4.024;2023-05-07T06:56:05;12.07;;;5.28;;
52274;SDS011;38228;50.940;4.024;2023-05-07T06:58:31;11.15;;;5.30;;
52274;SDS011;38228;50.940;4.024;2023-05-07T07:00:57;15.82;;;4.90;;
52274;SDS011;38228;50.940;4.024;2023-05-07T07:03:23;11.10;;;4.70;;
52274;SDS011;38228;50.940;4.024;2023-05-07T07:05:51;9.65;;;4.32;;
52274;SDS011;38228;50.940;4.024;2023-05-07T07:08:19;11.32;;;4.05;;
52274;SDS011;38228;50.940;4.024;2023-05-07T07:10:46;11.25;;;4.43;;
52274;SDS011;38228;50.940;4.024;2023-05-07T07:13:13;10.13;;;4.10;;
52274;SDS011;38228;50.940;4.024;2023-05-07T07:15:38;10.00;;;4.22;;
52274;SDS011;38228;50.940;4.024;2023-05-07T07:18:05;9.50;;;4.22;;
52274;SDS011;38228;50.940;4.024;2023-05-07T07:20:31;7.05;;;3.45;;
52274;SDS011;38228;50.940;4.024;2023-05-07T07:22:57;11.32;;;3.95;;
52274;SDS011;38228;50.940;4.024;2023-05-07T07:25:23;8.45;;;3.45;;
52274;SDS011;38228;50.940;4.024;2023-05-07T07:27:48;6.30;;;3.47;;
52274;SDS011;38228;50.940;4.024;2023-05-07T07:30:15;10.10;;;3.70;;
52274;SDS011;38228;50.940;4.024;2023-05-07T07:32:40;11.23;;;4.07;;
52274;SDS011;38228;50.940;4.024;2023-05-07T07:35:06;9.07;;;3.33;;
52274;SDS011;38228;50.940;4.024;2023-05-07T07:37:32;11.45;;;4.10;;
52274;SDS011;38228;50.940;4.024;2023-05-07T07:39:58;10.27;;;3.72;;
52274;SDS011;38228;50.940;4.024;2023-05-07T07:42:24;11.55;;;4.53;;
52274;SDS011;38228;50.940;4.024;2023-05-07T07:44:50;10.65;;;3.28;;
52274;SDS011;38228;50.940;4.024;2023-05-07T07:47:16;7.72;;;3.55;;
52274;SDS011;38228;50.940;4.024;2023-05-07T07:49:41;7.57;;;3.47;;
52274;SDS011;38228;50.940;4.024;2023-05-07T07:52:07;9.80;;;3.15;;
52274;SDS011;38228;50.940;4.024;2023-05-07T07:54:33;12.10;;;3.35;;
52274;SDS011;38228;50.940;4.024;2023-05-07T07:56:59;8.63;;;3.42;;
52274;SDS011;38228;50.940;4.024;2023-05-07T07:59:24;10.18;;;3.58;;
52274;SDS011;38228;50.940;4.024;2023-05-07T08:01:50;10.05;;;3.53;;
52274;SDS011;38228;50.940;4.024;2023-05-07T08:04:17;7.40;;;3.15;;
52274;SDS011;38228;50.940;4.024;2023-05-07T08:06:43;8.75;;;3.42;;
52274;SDS011;38228;50.940;4.024;2023-05-07T08:09:09;7.38;;;3.22;;
52274;SDS011;38228;50.940;4.024;2023-05-07T08:11:34;7.35;;;3.30;;
52274;SDS011;38228;50.940;4.024;2023-05-07T08:14:00;10.70;;;3.30;;
52274;SDS011;38228;50.940;4.024;2023-05-07T08:16:26;8.20;;;2.95;;
52274;SDS011;38228;50.940;4.024;2023-05-07T08:18:53;10.57;;;3.67;;
52274;SDS011;38228;50.940;4.024;2023-05-07T08:21:18;6.53;;;3.00;;
52274;SDS011;38228;50.940;4.024;2023-05-07T08:23:45;9.02;;;3.42;;
52274;SDS011;38228;50.940;4.024;2023-05-07T08:26:10;12.18;;;4.18;;
52274;SDS011;38228;50.940;4.024;2023-05-07T08:28:36;12.63;;;5.50;;
52274;SDS011;38228;50.940;4.024;2023-05-07T08:31:02;14.02;;;5.80;;
52274;SDS011;38228;50.940;4.024;2023-05-07T08:33:28;14.48;;;6.03;;
52274;SDS011;38228;50.940;4.024;2023-05-07T08:35:53;13.80;;;6.53;;
52274;SDS011;38228;50.940;4.024;2023-05-07T08:38:19;12.70;;;6.50;;
52274;SDS011;38228;50.940;4.024;2023-05-07T08:40:45;16.02;;;6.70;;
52274;SDS011;38228;50.940;4.024;2023-05-07T08:43:14;11.52;;;5.90;;
52274;SDS011;38228;50.940;4.024;2023-05-07T08:45:41;14.57;;;6.40;;
52274;SDS011;38228;50.940;4.024;2023-05-07T08:48:17;10.95;;;5.90;;
52274;SDS011;38228;50.940;4.024;2023-05-07T08:50:43;14.20;;;6.35;;
52274;SDS011;38228;50.940;4.024;2023-05-07T08:53:08;9.23;;;5.55;;
52274;SDS011;38228;50.940;4.024;2023-05-07T08:55:34;16.23;;;6.20;;
52274;SDS011;38228;50.940;4.024;2023-05-07T08:58:00;12.27;;;6.28;;
52274;SDS011;38228;50.940;4.024;2023-05-07T09:00:26;12.07;;;5.53;;
52274;SDS011;38228;50.940;4.024;2023-05-07T09:02:52;14.80;;;6.15;;
52274;SDS011;38228;50.940;4.024;2023-05-07T09:05:19;12.57;;;5.10;;
52274;SDS011;38228;50.940;4.024;2023-05-07T09:07:45;9.55;;;4.68;;
52274;SDS011;38228;50.940;4.024;2023-05-07T09:10:11;11.07;;;4.20;;
52274;SDS011;38228;50.940;4.024;2023-05-07T09:12:39;7.95;;;4.20;;
52274;SDS011;38228;50.940;4.024;2023-05-07T09:15:05;10.02;;;4.60;;
52274;SDS011;38228;50.940;4.024;2023-05-07T09:17:31;12.35;;;4.50;;
52274;SDS011;38228;50.940;4.024;2023-05-07T09:20:06;11.65;;;4.65;;
52274;SDS011;38228;50.940;4.024;2023-05-07T09:22:36;10.48;;;3.33;;
52274;SDS011;38228;50.940;4.024;2023-05-07T09:25:02;9.13;;;2.97;;
52274;SDS011;38228;50.940;4.024;2023-05-07T09:27:28;7.28;;;2.78;;
52274;SDS011;38228;50.940;4.024;2023-05-07T09:29:55;6.40;;;3.05;;
52274;SDS011;38228;50.940;4.024;2023-05-07T09:32:21;6.22;;;2.42;;
52274;SDS011;38228;50.940;4.024;2023-05-07T09:34:46;5.65;;;2.45;;
52274;SDS011;38228;50.940;4.024;2023-05-07T09:37:12;8.30;;;2.80;;
52274;SDS011;38228;50.940;4.024;2023-05-07T09:39:43;7.72;;;3.28;;
52274;SDS011;38228;50.940;4.024;2023-05-07T09:42:10;6.57;;;3.17;;
52274;SDS011;38228;50.940;4.024;2023-05-07T09:44:45;8.75;;;2.80;;
52274;SDS011;38228;50.940;4.024;2023-05-07T09:47:12;6.97;;;1.92;;
52274;SDS011;38228;50.940;4.024;2023-05-07T09:49:45;7.03;;;1.90;;
52274;SDS011;38228;50.940;4.024;2023-05-07T09:52:13;8.43;;;2.95;;
52274;SDS011;38228;50.940;4.024;2023-05-07T09:54:39;6.13;;;2.10;;
52274;SDS011;38228;50.940;4.024;2023-05-07T09:57:08;4.93;;;2.08;;
52274;SDS011;38228;50.940;4.024;2023-05-07T09:59:36;7.07;;;2.50;;
52274;SDS011;38228;50.940;4.024;2023-05-07T10:02:03;5.00;;;2.15;;
52274;SDS011;38228;50.940;4.024;2023-05-07T10:04:31;5.55;;;2.05;;
52274;SDS011;38228;50.940;4.024;2023-05-07T10:06:57;6.28;;;2.58;;
52274;SDS011;38228;50.940;4.024;2023-05-07T10:09:25;5.47;;;2.30;;
52274;SDS011;38228;50.940;4.024;2023-05-07T10:11:51;4.50;;;2.10;;
52274;SDS011;38228;50.940;4.024;2023-05-07T10:14:19;8.48;;;2.75;;
52274;SDS011;38228;50.940;4.024;2023-05-07T10:16:46;9.38;;;2.90;;
52274;SDS011;38228;50.940;4.024;2023-05-07T10:19:13;3.35;;;1.90;;
52274;SDS011;38228;50.940;4.024;2023-05-07T10:21:43;4.55;;;2.00;;
52274;SDS011;38228;50.940;4.024;2023-05-07T10:24:20;4.20;;;2.20;;
52274;SDS011;38228;50.940;4.024;2023-05-07T10:26:51;4.93;;;2.60;;
52274;SDS011;38228;50.940;4.024;2023-05-07T10:29:25;5.15;;;2.30;;
52274;SDS011;38228;50.940;4.024;2023-05-07T10:34:43;5.32;;;2.55;;
52274;SDS011;38228;50.940;4.024;2023-05-07T10:37:12;5.10;;;2.70;;
52274;SDS011;38228;50.940;4.024;2023-05-07T10:39:38;4.13;;;2.60;;
52274;SDS011;38228;50.940;4.024;2023-05-07T10:42:10;5.78;;;2.75;;
52274;SDS011;38228;50.940;4.024;2023-05-07T10:44:37;3.35;;;2.55;;
52274;SDS011;38228;50.940;4.024;2023-05-07T10:47:07;5.35;;;2.70;;
52274;SDS011;38228;50.940;4.024;2023-05-07T10:50:19;4.68;;;2.72;;
52274;SDS011;38228;50.940;4.024;2023-05-07T10:53:15;8.52;;;2.95;;
52274;SDS011;38228;50.940;4.024;2023-05-07T11:00:47;5.45;;;3.15;;
52274;SDS011;38228;50.940;4.024;2023-05-07T11:03:16;5.90;;;3.15;;
52274;SDS011;38228;50.940;4.024;2023-05-07T11:05:42;4.88;;;2.90;;
52274;SDS011;38228;50.940;4.024;2023-05-07T11:08:08;6.60;;;3.45;;
52274;SDS011;38228;50.940;4.024;2023-05-07T11:13:40;7.43;;;3.20;;
52274;SDS011;38228;50.940;4.024;2023-05-07T11:16:24;4.03;;;2.95;;
52274;SDS011;38228;50.940;4.024;2023-05-07T11:18:52;5.03;;;3.40;;
52274;SDS011;38228;50.940;4.024;2023-05-07T11:24:00;4.63;;;2.78;;
52274;SDS011;38228;50.940;4.024;2023-05-07T11:26:27;6.00;;;3.13;;
52274;SDS011;38228;50.940;4.024;2023-05-07T11:28:54;6.55;;;4.05;;
52274;SDS011;38228;50.940;4.024;2023-05-07T11:31:22;4.65;;;3.05;;
52274;SDS011;38228;50.940;4.024;2023-05-07T11:33:49;4.28;;;3.40;;
52274;SDS011;38228;50.940;4.024;2023-05-07T11:36:15;6.25;;;3.75;;
52274;SDS011;38228;50.940;4.024;2023-05-07T11:38:41;6.78;;;3.50;;
52274;SDS011;38228;50.940;4.024;2023-05-07T11:41:07;5.07;;;2.80;;
52274;SDS011;38228;50.940;4.024;2023-05-07T11:43:33;4.72;;;2.53;;
52274;SDS011;38228;50.940;4.024;2023-05-07T11:46:09;2.95;;;2.60;;
52274;SDS011;38228;50.940;4.024;2023-05-07T11:48:36;4.65;;;2.63;;
52274;SDS011;38228;50.940;4.024;2023-05-07T11:51:03;3.13;;;2.30;;
52274;SDS011;38228;50.940;4.024;2023-05-07T11:53:38;4.80;;;2.60;;
52274;SDS011;38228;50.940;4.024;2023-05-07T11:56:08;5.82;;;2.80;;
52274;SDS011;38228;50.940;4.024;2023-05-07T11:58:39;3.35;;;2.22;;
52274;SDS011;38228;50.940;4.024;2023-05-07T12:01:09;3.40;;;2.17;;
52274;SDS011;38228;50.940;4.024;2023-05-07T12:03:37;3.63;;;2.33;;
52274;SDS011;38228;50.940;4.024;2023-05-07T12:06:13;3.72;;;2.35;;
52274;SDS011;38228;50.940;4.024;2023-05-07T12:08:41;2.80;;;1.92;;
52274;SDS011;38228;50.940;4.024;2023-05-07T12:11:08;3.55;;;1.75;;
52274;SDS011;38228;50.940;4.024;2023-05-07T12:13:36;2.25;;;1.92;;
52274;SDS011;38228;50.940;4.024;2023-05-07T12:16:02;4.10;;;1.58;;
52274;SDS011;38228;50.940;4.024;2023-05-07T12:18:29;2.40;;;1.80;;
52274;SDS011;38228;50.940;4.024;2023-05-07T12:20:55;2.58;;;2.03;;
52274;SDS011;38228;50.940;4.024;2023-05-07T12:23:21;2.92;;;1.70;;
52274;SDS011;38228;50.940;4.024;2023-05-07T12:25:47;2.38;;;1.63;;
52274;SDS011;38228;50.940;4.024;2023-05-07T12:28:15;5.22;;;2.08;;
52274;SDS011;38228;50.940;4.024;2023-05-07T12:30:43;3.53;;;1.80;;
52274;SDS011;38228;50.940;4.024;2023-05-07T12:33:11;6.05;;;2.00;;
52274;SDS011;38228;50.940;4.024;2023-05-07T12:35:38;3.47;;;2.60;;
52274;SDS011;38228;50.940;4.024;2023-05-07T12:38:07;2.92;;;2.40;;
52274;SDS011;38228;50.940;4.024;2023-05-07T12:40:45;8.38;;;7.13;;
52274;SDS011;38228;50.940;4.024;2023-05-07T12:43:28;4.97;;;3.25;;
52274;SDS011;38228;50.940;4.024;2023-05-07T12:45:55;5.18;;;3.20;;
52274;SDS011;38228;50.940;4.024;2023-05-07T12:48:22;5.13;;;3.88;;
52274;SDS011;38228;50.940;4.024;2023-05-07T12:50:52;5.07;;;3.47;;
52274;SDS011;38228;50.940;4.024;2023-05-07T12:53:20;5.13;;;3.65;;
52274;SDS011;38228;50.940;4.024;2023-05-07T12:55:48;5.20;;;3.65;;
52274;SDS011;38228;50.940;4.024;2023-05-07T12:58:25;5.72;;;3.70;;
52274;SDS011;38228;50.940;4.024;2023-05-07T13:01:03;5.32;;;3.80;;
52274;SDS011;38228;50.940;4.024;2023-05-07T13:03:34;4.68;;;4.20;;
52274;SDS011;38228;50.940;4.024;2023-05-07T13:06:02;5.35;;;4.05;;
52274;SDS011;38228;50.940;4.024;2023-05-07T13:08:39;5.47;;;4.43;;
52274;SDS011;38228;50.940;4.024;2023-05-07T13:11:08;6.05;;;4.07;;
52274;SDS011;38228;50.940;4.024;2023-05-07T13:13:37;6.40;;;3.90;;
52274;SDS011;38228;50.940;4.024;2023-05-07T13:16:05;9.90;;;4.60;;
52274;SDS011;38228;50.940;4.024;2023-05-07T13:18:33;6.95;;;4.25;;
52274;SDS011;38228;50.940;4.024;2023-05-07T13:21:00;7.38;;;4.72;;
52274;SDS011;38228;50.940;4.024;2023-05-07T13:23:28;5.65;;;4.40;;
52274;SDS011;38228;50.940;4.024;2023-05-07T13:25:55;4.10;;;3.70;;
52274;SDS011;38228;50.940;4.024;2023-05-07T13:28:21;4.93;;;3.55;;
52274;SDS011;38228;50.940;4.024;2023-05-07T13:30:48;4.97;;;3.78;;
52274;SDS011;38228;50.940;4.024;2023-05-07T13:33:13;5.50;;;3.97;;
52274;SDS011;38228;50.940;4.024;2023-05-07T13:35:41;4.38;;;3.83;;
52274;SDS011;38228;50.940;4.024;2023-05-07T13:38:06;5.55;;;4.18;;
52274;SDS011;38228;50.940;4.024;2023-05-07T13:40:33;6.05;;;4.00;;
52274;SDS011;38228;50.940;4.024;2023-05-07T13:43:00;5.25;;;4.32;;
52274;SDS011;38228;50.940;4.024;2023-05-07T13:45:29;8.50;;;4.28;;
52274;SDS011;38228;50.940;4.024;2023-05-07T13:47:56;6.28;;;3.97;;
52274;SDS011;38228;50.940;4.024;2023-05-07T13:50:22;4.38;;;3.97;;
52274;SDS011;38228;50.940;4.024;2023-05-07T13:52:48;6.13;;;4.07;;
52274;SDS011;38228;50.940;4.024;2023-05-07T13:55:17;6.90;;;4.18;;
52274;SDS011;38228;50.940;4.024;2023-05-07T13:57:44;5.45;;;4.00;;
52274;SDS011;38228;50.940;4.024;2023-05-07T14:00:11;5.10;;;4.43;;
52274;SDS011;38228;50.940;4.024;2023-05-07T14:02:39;5.28;;;4.30;;
52274;SDS011;38228;50.940;4.024;2023-05-07T14:05:05;6.78;;;4.18;;
52274;SDS011;38228;50.940;4.024;2023-05-07T14:07:32;6.30;;;4.45;;
52274;SDS011;38228;50.940;4.024;2023-05-07T14:09:59;7.68;;;5.10;;
52274;SDS011;38228;50.940;4.024;2023-05-07T14:12:25;7.13;;;5.13;;
52274;SDS011;38228;50.940;4.024;2023-05-07T14:14:51;7.40;;;4.85;;
52274;SDS011;38228;50.940;4.024;2023-05-07T14:17:17;6.65;;;4.90;;
52274;SDS011;38228;50.940;4.024;2023-05-07T14:19:43;7.47;;;5.15;;
52274;SDS011;38228;50.940;4.024;2023-05-07T14:22:09;8.18;;;5.03;;
52274;SDS011;38228;50.940;4.024;2023-05-07T14:24:35;8.52;;;5.90;;
52274;SDS011;38228;50.940;4.024;2023-05-07T14:27:01;10.68;;;6.43;;
52274;SDS011;38228;50.940;4.024;2023-05-07T14:29:27;10.68;;;6.22;;
52274;SDS011;38228;50.940;4.024;2023-05-07T14:31:53;10.25;;;6.18;;
52274;SDS011;38228;50.940;4.024;2023-05-07T14:34:18;9.93;;;6.28;;
52274;SDS011;38228;50.940;4.024;2023-05-07T14:36:45;10.30;;;6.25;;
52274;SDS011;38228;50.940;4.024;2023-05-07T14:39:10;9.77;;;6.40;;
52274;SDS011;38228;50.940;4.024;2023-05-07T14:41:36;10.48;;;6.40;;
52274;SDS011;38228;50.940;4.024;2023-05-07T14:44:02;9.27;;;6.43;;
52274;SDS011;38228;50.940;4.024;2023-05-07T14:46:29;8.27;;;6.10;;
52274;SDS011;38228;50.940;4.024;2023-05-07T14:48:56;10.20;;;6.90;;
52274;SDS011;38228;50.940;4.024;2023-05-07T14:51:22;10.95;;;7.53;;
52274;SDS011;38228;50.940;4.024;2023-05-07T14:53:49;13.48;;;8.10;;